sensor_id;sensor_type;location;lat;lon;timestamp;P1;durP1;ratioP1;P2;durP2;ratioP2
48859;SDS011;34679;51.436;-2.518;2022-11-21T00:00:52;18.98;;;4.82;;
48859;SDS011;34679;51.436;-2.518;2022-11-21T00:03:18;21.85;;;3.95;;
48859;SDS011;34679;51.436;-2.518;2022-11-21T00:05:45;20.80;;;4.65;;
48859;SDS011;34679;51.436;-2.518;2022-11-21T00:08:13;21.20;;;3.78;;
48859;SDS011;34679;51.436;-2.518;2022-11-21T00:10:40;25.77;;;4.13;;
48859;SDS011;34679;51.436;-2.518;2022-11-21T00:13:07;26.13;;;4.43;;
48859;SDS011;34679;51.436;-2.518;2022-11-21T00:15:43;19.35;;;5.20;;
48859;SDS011;34679;51.436;-2.518;2022-11-21T00:18:09;20.15;;;4.57;;
48859;SDS011;34679;51.436;-2.518;2022-11-21T00:20:38;25.30;;;3.65;;
48859;SDS011;34679;51.436;-2.518;2022-11-21T00:23:05;20.60;;;4.43;;
48859;SDS011;34679;51.436;-2.518;2022-11-21T00:25:31;30.40;;;5.05;;
48859;SDS011;34679;51.436;-2.518;2022-11-21T00:27:57;26.60;;;4.13;;
48859;SDS011;34679;51.436;-2.518;2022-11-21T00:30:22;28.05;;;4.60;;
48859;SDS011;34679;51.436;-2.518;2022-11-21T00:32:48;20.65;;;4.50;;
48859;SDS011;34679;51.436;-2.518;2022-11-21T00:35:14;24.58;;;4.22;;
48859;SDS011;34679;51.436;-2.518;2022-11-21T00:37:40;21.35;;;3.65;;
48859;SDS011;34679;51.436;-2.518;2022-11-21T00:40:05;22.60;;;3.92;;
48859;SDS011;34679;51.436;-2.518;2022-11-21T00:42:31;19.15;;;4.20;;
48859;SDS011;34679;51.436;-2.518;2022-11-21T00:44:57;23.05;;;3.58;;
48859;SDS011;34679;51.436;-2.518;2022-11-21T00:47:23;30.65;;;4.95;;
48859;SDS011;34679;51.436;-2.518;2022-11-21T00:49:48;24.85;;;3.95;;
48859;SDS011;34679;51.436;-2.518;2022-11-21T00:52:15;27.00;;;4.50;;
48859;SDS011;34679;51.436;-2.518;2022-11-21T00:54:41;27.15;;;5.30;;
48859;SDS011;34679;51.436;-2.518;2022-11-21T00:57:07;18.35;;;4.20;;
48859;SDS011;34679;51.436;-2.518;2022-11-21T00:59:32;20.38;;;4.13;;
48859;SDS011;34679;51.436;-2.518;2022-11-21T01:01:58;15.80;;;4.28;;
48859;SDS011;34679;51.436;-2.518;2022-11-21T01:04:24;28.33;;;4.75;;
48859;SDS011;34679;51.436;-2.518;2022-11-21T01:06:50;24.00;;;4.45;;
48859;SDS011;34679;51.436;-2.518;2022-11-21T01:09:15;18.58;;;3.53;;
48859;SDS011;34679;51.436;-2.518;2022-11-21T01:11:41;30.05;;;4.70;;
48859;SDS011;34679;51.436;-2.518;2022-11-21T01:14:07;31.25;;;4.43;;
48859;SDS011;34679;51.436;-2.518;2022-11-21T01:16:32;21.05;;;3.60;;
48859;SDS011;34679;51.436;-2.518;2022-11-21T01:18:58;21.50;;;3.13;;
48859;SDS011;34679;51.436;-2.518;2022-11-21T01:21:25;20.75;;;3.97;;
48859;SDS011;34679;51.436;-2.518;2022-11-21T01:23:53;25.63;;;3.45;;
48859;SDS011;34679;51.436;-2.518;2022-11-21T01:26:20;20.85;;;3.00;;
48859;SDS011;34679;51.436;-2.518;2022-11-21T01:28:47;29.63;;;4.32;;
48859;SDS011;34679;51.436;-2.518;2022-11-21T01:31:21;22.50;;;4.05;;
48859;SDS011;34679;51.436;-2.518;2022-11-21T01:33:49;25.15;;;4.78;;
48859;SDS011;34679;51.436;-2.518;2022-11-21T01:38:46;20.20;;;3.72;;
48859;SDS011;34679;51.436;-2.518;2022-11-21T01:41:18;33.97;;;5.18;;
48859;SDS011;34679;51.436;-2.518;2022-11-21T01:43:46;19.27;;;4.07;;
48859;SDS011;34679;51.436;-2.518;2022-11-21T01:46:12;29.80;;;4.20;;
48859;SDS011;34679;51.436;-2.518;2022-11-21T01:48:45;31.48;;;4.97;;
48859;SDS011;34679;51.436;-2.518;2022-11-21T01:53:54;30.77;;;4.97;;
48859;SDS011;34679;51.436;-2.518;2022-11-21T01:56:40;18.65;;;4.35;;
48859;SDS011;34679;51.436;-2.518;2022-11-21T01:59:21;18.45;;;3.70;;
48859;SDS011;34679;51.436;-2.518;2022-11-21T02:01:55;21.95;;;3.40;;
48859;SDS011;34679;51.436;-2.518;2022-11-21T02:04:24;27.63;;;4.32;;
48859;SDS011;34679;51.436;-2.518;2022-11-21T02:06:54;17.30;;;4.18;;
48859;SDS011;34679;51.436;-2.518;2022-11-21T02:09:20;27.92;;;4.10;;
48859;SDS011;34679;51.436;-2.518;2022-11-21T02:11:51;26.42;;;5.40;;
48859;SDS011;34679;51.436;-2.518;2022-11-21T02:16:46;24.42;;;3.40;;
48859;SDS011;34679;51.436;-2.518;2022-11-21T02:19:14;26.45;;;3.80;;
48859;SDS011;34679;51.436;-2.518;2022-11-21T02:21:52;29.45;;;3.95;;
48859;SDS011;34679;51.436;-2.518;2022-11-21T02:27:07;22.00;;;3.90;;
48859;SDS011;34679;51.436;-2.518;2022-11-21T02:29:34;25.17;;;4.32;;
48859;SDS011;34679;51.436;-2.518;2022-11-21T02:32:01;21.35;;;3.63;;
48859;SDS011;34679;51.436;-2.518;2022-11-21T02:34:29;19.33;;;3.13;;
48859;SDS011;34679;51.436;-2.518;2022-11-21T02:36:55;31.98;;;4.30;;
48859;SDS011;34679;51.436;-2.518;2022-11-21T02:39:22;26.75;;;5.13;;
48859;SDS011;34679;51.436;-2.518;2022-11-21T02:42:02;18.13;;;4.20;;
48859;SDS011;34679;51.436;-2.518;2022-11-21T02:47:40;25.50;;;3.38;;
48859;SDS011;34679;51.436;-2.518;2022-11-21T02:50:12;24.33;;;3.67;;
48859;SDS011;34679;51.436;-2.518;2022-11-21T02:52:39;18.63;;;4.20;;
48859;SDS011;34679;51.436;-2.518;2022-11-21T02:55:05;22.30;;;3.63;;
48859;SDS011;34679;51.436;-2.518;2022-11-21T02:57:31;20.40;;;3.10;;
48859;SDS011;34679;51.436;-2.518;2022-11-21T02:59:57;20.10;;;4.10;;
48859;SDS011;34679;51.436;-2.518;2022-11-21T03:02:22;21.70;;;4.20;;
48859;SDS011;34679;51.436;-2.518;2022-11-21T03:04:48;23.33;;;3.00;;
48859;SDS011;34679;51.436;-2.518;2022-11-21T03:07:14;22.08;;;3.75;;
48859;SDS011;34679;51.436;-2.518;2022-11-21T03:09:40;32.10;;;3.78;;
48859;SDS011;34679;51.436;-2.518;2022-11-21T03:12:06;14.93;;;3.05;;
48859;SDS011;34679;51.436;-2.518;2022-11-21T03:14:34;23.42;;;3.00;;
48859;SDS011;34679;51.436;-2.518;2022-11-21T03:17:00;23.23;;;3.60;;
48859;SDS011;34679;51.436;-2.518;2022-11-21T03:19:27;26.15;;;3.10;;
48859;SDS011;34679;51.436;-2.518;2022-11-21T03:21:52;23.25;;;3.13;;
48859;SDS011;34679;51.436;-2.518;2022-11-21T03:24:18;21.85;;;4.20;;
48859;SDS011;34679;51.436;-2.518;2022-11-21T03:26:44;18.50;;;4.60;;
48859;SDS011;34679;51.436;-2.518;2022-11-21T03:29:10;22.25;;;3.08;;
48859;SDS011;34679;51.436;-2.518;2022-11-21T03:31:35;33.08;;;3.88;;
48859;SDS011;34679;51.436;-2.518;2022-11-21T03:34:01;25.45;;;4.13;;
48859;SDS011;34679;51.436;-2.518;2022-11-21T03:36:27;13.55;;;2.42;;
48859;SDS011;34679;51.436;-2.518;2022-11-21T03:38:54;21.83;;;3.88;;
48859;SDS011;34679;51.436;-2.518;2022-11-21T03:41:21;33.00;;;3.63;;
48859;SDS011;34679;51.436;-2.518;2022-11-21T03:43:57;25.38;;;4.80;;
48859;SDS011;34679;51.436;-2.518;2022-11-21T03:46:27;27.15;;;4.10;;
48859;SDS011;34679;51.436;-2.518;2022-11-21T03:48:54;21.70;;;4.32;;
48859;SDS011;34679;51.436;-2.518;2022-11-21T03:51:19;20.05;;;4.20;;
48859;SDS011;34679;51.436;-2.518;2022-11-21T03:53:45;27.88;;;3.58;;
48859;SDS011;34679;51.436;-2.518;2022-11-21T03:56:11;19.27;;;3.75;;
48859;SDS011;34679;51.436;-2.518;2022-11-21T03:58:37;23.00;;;3.78;;
48859;SDS011;34679;51.436;-2.518;2022-11-21T04:01:02;20.45;;;3.13;;
48859;SDS011;34679;51.436;-2.518;2022-11-21T04:03:28;22.40;;;3.55;;
48859;SDS011;34679;51.436;-2.518;2022-11-21T04:05:54;35.40;;;3.60;;
48859;SDS011;34679;51.436;-2.518;2022-11-21T04:08:19;13.15;;;2.70;;
48859;SDS011;34679;51.436;-2.518;2022-11-21T04:10:49;20.45;;;3.42;;
48859;SDS011;34679;51.436;-2.518;2022-11-21T04:13:15;16.58;;;2.85;;
48859;SDS011;34679;51.436;-2.518;2022-11-21T04:15:42;23.83;;;4.10;;
48859;SDS011;34679;51.436;-2.518;2022-11-21T04:18:09;15.98;;;3.50;;
48859;SDS011;34679;51.436;-2.518;2022-11-21T04:20:35;32.85;;;4.60;;
48859;SDS011;34679;51.436;-2.518;2022-11-21T04:23:00;23.85;;;3.53;;
48859;SDS011;34679;51.436;-2.518;2022-11-21T04:25:26;16.33;;;2.83;;
48859;SDS011;34679;51.436;-2.518;2022-11-21T04:27:59;24.92;;;4.15;;
48859;SDS011;34679;51.436;-2.518;2022-11-21T04:30:26;26.70;;;3.55;;
48859;SDS011;34679;51.436;-2.518;2022-11-21T04:32:52;28.02;;;4.40;;
48859;SDS011;34679;51.436;-2.518;2022-11-21T04:35:18;29.40;;;4.30;;
48859;SDS011;34679;51.436;-2.518;2022-11-21T04:37:45;17.27;;;2.97;;
48859;SDS011;34679;51.436;-2.518;2022-11-21T04:40:11;27.90;;;3.50;;
48859;SDS011;34679;51.436;-2.518;2022-11-21T04:42:40;19.55;;;3.83;;
48859;SDS011;34679;51.436;-2.518;2022-11-21T04:45:07;23.77;;;3.88;;
48859;SDS011;34679;51.436;-2.518;2022-11-21T04:47:40;27.85;;;3.85;;
48859;SDS011;34679;51.436;-2.518;2022-11-21T04:50:08;27.02;;;3.85;;
48859;SDS011;34679;51.436;-2.518;2022-11-21T04:52:36;28.27;;;3.72;;
48859;SDS011;34679;51.436;-2.518;2022-11-21T04:55:01;28.52;;;3.92;;
48859;SDS011;34679;51.436;-2.518;2022-11-21T04:57:28;17.40;;;3.00;;
48859;SDS011;34679;51.436;-2.518;2022-11-21T04:59:54;20.77;;;3.72;;
48859;SDS011;34679;51.436;-2.518;2022-11-21T05:02:20;32.78;;;3.58;;
48859;SDS011;34679;51.436;-2.518;2022-11-21T05:04:46;10.13;;;2.55;;
48859;SDS011;34679;51.436;-2.518;2022-11-21T05:07:12;16.33;;;2.80;;
48859;SDS011;34679;51.436;-2.518;2022-11-21T05:09:38;23.88;;;2.75;;
48859;SDS011;34679;51.436;-2.518;2022-11-21T05:12:04;28.33;;;3.40;;
48859;SDS011;34679;51.436;-2.518;2022-11-21T05:14:48;16.13;;;2.85;;
48859;SDS011;34679;51.436;-2.518;2022-11-21T05:17:14;15.10;;;2.55;;
48859;SDS011;34679;51.436;-2.518;2022-11-21T05:19:39;20.75;;;3.35;;
48859;SDS011;34679;51.436;-2.518;2022-11-21T05:22:05;17.25;;;2.55;;
48859;SDS011;34679;51.436;-2.518;2022-11-21T05:24:31;19.35;;;2.78;;
48859;SDS011;34679;51.436;-2.518;2022-11-21T05:26:57;20.67;;;4.25;;
48859;SDS011;34679;51.436;-2.518;2022-11-21T05:29:22;19.05;;;4.32;;
48859;SDS011;34679;51.436;-2.518;2022-11-21T05:31:48;17.13;;;2.80;;
48859;SDS011;34679;51.436;-2.518;2022-11-21T05:34:14;15.23;;;2.60;;
48859;SDS011;34679;51.436;-2.518;2022-11-21T05:36:39;14.32;;;3.05;;
48859;SDS011;34679;51.436;-2.518;2022-11-21T05:39:05;16.10;;;3.35;;
48859;SDS011;34679;51.436;-2.518;2022-11-21T05:41:31;17.05;;;3.00;;
48859;SDS011;34679;51.436;-2.518;2022-11-21T05:43:57;20.02;;;3.28;;
48859;SDS011;34679;51.436;-2.518;2022-11-21T05:46:23;24.45;;;4.55;;
48859;SDS011;34679;51.436;-2.518;2022-11-21T05:48:50;21.88;;;3.10;;
48859;SDS011;34679;51.436;-2.518;2022-11-21T05:51:18;25.13;;;2.63;;
48859;SDS011;34679;51.436;-2.518;2022-11-21T05:53:44;23.05;;;3.28;;
48859;SDS011;34679;51.436;-2.518;2022-11-21T05:56:11;18.45;;;2.92;;
48859;SDS011;34679;51.436;-2.518;2022-11-21T05:58:40;21.23;;;3.05;;
48859;SDS011;34679;51.436;-2.518;2022-11-21T06:01:07;19.35;;;2.78;;
48859;SDS011;34679;51.436;-2.518;2022-11-21T06:03:35;16.58;;;2.85;;
48859;SDS011;34679;51.436;-2.518;2022-11-21T06:08:31;12.23;;;2.47;;
48859;SDS011;34679;51.436;-2.518;2022-11-21T06:11:00;24.42;;;3.42;;
48859;SDS011;34679;51.436;-2.518;2022-11-21T06:13:26;23.20;;;3.63;;
48859;SDS011;34679;51.436;-2.518;2022-11-21T06:18:36;22.25;;;3.65;;
48859;SDS011;34679;51.436;-2.518;2022-11-21T06:21:06;21.13;;;2.22;;
48859;SDS011;34679;51.436;-2.518;2022-11-21T06:23:34;19.48;;;2.80;;
48859;SDS011;34679;51.436;-2.518;2022-11-21T06:26:02;24.30;;;3.20;;
48859;SDS011;34679;51.436;-2.518;2022-11-21T06:28:29;17.35;;;2.50;;
48859;SDS011;34679;51.436;-2.518;2022-11-21T06:31:01;30.45;;;3.17;;
48859;SDS011;34679;51.436;-2.518;2022-11-21T06:33:27;12.77;;;2.30;;
48859;SDS011;34679;51.436;-2.518;2022-11-21T06:35:53;27.42;;;3.70;;
48859;SDS011;34679;51.436;-2.518;2022-11-21T06:38:18;17.15;;;2.55;;
48859;SDS011;34679;51.436;-2.518;2022-11-21T06:40:44;16.98;;;3.28;;
48859;SDS011;34679;51.436;-2.518;2022-11-21T06:43:10;27.00;;;2.75;;
48859;SDS011;34679;51.436;-2.518;2022-11-21T06:45:35;13.93;;;2.63;;
48859;SDS011;34679;51.436;-2.518;2022-11-21T06:48:01;22.98;;;3.00;;
48859;SDS011;34679;51.436;-2.518;2022-11-21T06:50:27;23.95;;;3.22;;
48859;SDS011;34679;51.436;-2.518;2022-11-21T06:52:58;32.30;;;4.35;;
48859;SDS011;34679;51.436;-2.518;2022-11-21T06:55:24;28.05;;;3.53;;
48859;SDS011;34679;51.436;-2.518;2022-11-21T06:57:51;31.38;;;4.03;;
48859;SDS011;34679;51.436;-2.518;2022-11-21T07:00:17;39.40;;;5.68;;
48859;SDS011;34679;51.436;-2.518;2022-11-21T07:02:45;25.77;;;3.70;;
48859;SDS011;34679;51.436;-2.518;2022-11-21T07:05:10;22.95;;;3.63;;
48859;SDS011;34679;51.436;-2.518;2022-11-21T07:07:36;18.13;;;3.00;;
48859;SDS011;34679;51.436;-2.518;2022-11-21T07:10:02;26.30;;;4.63;;
48859;SDS011;34679;51.436;-2.518;2022-11-21T07:12:28;25.30;;;3.10;;
48859;SDS011;34679;51.436;-2.518;2022-11-21T07:15:12;16.30;;;3.78;;
48859;SDS011;34679;51.436;-2.518;2022-11-21T07:17:38;14.98;;;3.08;;
48859;SDS011;34679;51.436;-2.518;2022-11-21T07:20:04;21.92;;;3.55;;
48859;SDS011;34679;51.436;-2.518;2022-11-21T07:22:30;19.25;;;3.22;;
48859;SDS011;34679;51.436;-2.518;2022-11-21T07:24:56;17.20;;;3.70;;
48859;SDS011;34679;51.436;-2.518;2022-11-21T07:27:21;19.75;;;2.95;;
48859;SDS011;34679;51.436;-2.518;2022-11-21T07:29:47;28.75;;;4.78;;
48859;SDS011;34679;51.436;-2.518;2022-11-21T07:32:13;11.32;;;2.45;;
48859;SDS011;34679;51.436;-2.518;2022-11-21T07:34:39;21.80;;;3.33;;
48859;SDS011;34679;51.436;-2.518;2022-11-21T07:37:04;22.95;;;4.00;;
48859;SDS011;34679;51.436;-2.518;2022-11-21T07:39:30;17.08;;;3.17;;
48859;SDS011;34679;51.436;-2.518;2022-11-21T07:41:56;17.48;;;3.47;;
48859;SDS011;34679;51.436;-2.518;2022-11-21T07:44:21;18.80;;;3.00;;
48859;SDS011;34679;51.436;-2.518;2022-11-21T07:46:47;20.38;;;3.22;;
48859;SDS011;34679;51.436;-2.518;2022-11-21T07:49:13;25.13;;;3.47;;
48859;SDS011;34679;51.436;-2.518;2022-11-21T07:51:38;31.85;;;4.00;;
48859;SDS011;34679;51.436;-2.518;2022-11-21T07:54:04;25.52;;;3.95;;
48859;SDS011;34679;51.436;-2.518;2022-11-21T07:56:30;16.15;;;3.38;;
48859;SDS011;34679;51.436;-2.518;2022-11-21T07:58:56;33.47;;;4.00;;
48859;SDS011;34679;51.436;-2.518;2022-11-21T08:01:21;18.67;;;3.38;;
48859;SDS011;34679;51.436;-2.518;2022-11-21T08:03:47;34.95;;;3.72;;
48859;SDS011;34679;51.436;-2.518;2022-11-21T08:06:13;26.50;;;2.90;;
48859;SDS011;34679;51.436;-2.518;2022-11-21T08:08:38;17.52;;;3.75;;
48859;SDS011;34679;51.436;-2.518;2022-11-21T08:11:04;34.00;;;5.28;;
48859;SDS011;34679;51.436;-2.518;2022-11-21T08:13:31;17.73;;;3.58;;
48859;SDS011;34679;51.436;-2.518;2022-11-21T08:15:57;19.35;;;3.03;;
48859;SDS011;34679;51.436;-2.518;2022-11-21T08:18:23;16.63;;;3.90;;
48859;SDS011;34679;51.436;-2.518;2022-11-21T08:20:48;22.75;;;4.63;;
48859;SDS011;34679;51.436;-2.518;2022-11-21T08:23:14;23.13;;;3.55;;
48859;SDS011;34679;51.436;-2.518;2022-11-21T08:25:40;21.45;;;3.78;;
48859;SDS011;34679;51.436;-2.518;2022-11-21T08:28:06;26.13;;;4.18;;
48859;SDS011;34679;51.436;-2.518;2022-11-21T08:30:33;20.33;;;3.15;;
48859;SDS011;34679;51.436;-2.518;2022-11-21T08:33:00;18.98;;;3.65;;
48859;SDS011;34679;51.436;-2.518;2022-11-21T08:35:26;27.73;;;3.28;;
48859;SDS011;34679;51.436;-2.518;2022-11-21T08:37:56;24.30;;;3.67;;
48859;SDS011;34679;51.436;-2.518;2022-11-21T08:40:23;17.42;;;2.70;;
48859;SDS011;34679;51.436;-2.518;2022-11-21T08:42:59;35.53;;;4.30;;
48859;SDS011;34679;51.436;-2.518;2022-11-21T08:45:33;18.63;;;3.50;;
48859;SDS011;34679;51.436;-2.518;2022-11-21T08:48:00;15.45;;;3.38;;
48859;SDS011;34679;51.436;-2.518;2022-11-21T08:50:26;19.85;;;2.53;;
48859;SDS011;34679;51.436;-2.518;2022-11-21T08:52:52;21.15;;;3.60;;
48859;SDS011;34679;51.436;-2.518;2022-11-21T08:55:23;25.55;;;4.50;;
48859;SDS011;34679;51.436;-2.518;2022-11-21T08:57:48;10.60;;;2.17;;
48859;SDS011;34679;51.436;-2.518;2022-11-21T09:00:14;34.10;;;4.05;;
48859;SDS011;34679;51.436;-2.518;2022-11-21T09:02:40;21.45;;;3.75;;
48859;SDS011;34679;51.436;-2.518;2022-11-21T09:05:06;29.70;;;5.35;;
48859;SDS011;34679;51.436;-2.518;2022-11-21T09:07:32;29.80;;;5.22;;
48859;SDS011;34679;51.436;-2.518;2022-11-21T09:09:58;23.33;;;4.43;;
48859;SDS011;34679;51.436;-2.518;2022-11-21T09:12:23;22.80;;;3.83;;
48859;SDS011;34679;51.436;-2.518;2022-11-21T09:14:49;32.80;;;5.03;;
48859;SDS011;34679;51.436;-2.518;2022-11-21T09:17:33;27.50;;;3.60;;
48859;SDS011;34679;51.436;-2.518;2022-11-21T09:20:17;22.05;;;4.15;;
48859;SDS011;34679;51.436;-2.518;2022-11-21T09:22:43;16.23;;;3.88;;
48859;SDS011;34679;51.436;-2.518;2022-11-21T09:25:08;31.60;;;4.22;;
48859;SDS011;34679;51.436;-2.518;2022-11-21T09:27:34;23.13;;;4.55;;
48859;SDS011;34679;51.436;-2.518;2022-11-21T09:30:00;21.48;;;3.55;;
48859;SDS011;34679;51.436;-2.518;2022-11-21T09:32:25;18.92;;;2.95;;
48859;SDS011;34679;51.436;-2.518;2022-11-21T09:34:51;17.15;;;3.03;;
48859;SDS011;34679;51.436;-2.518;2022-11-21T09:37:16;28.15;;;5.43;;
48859;SDS011;34679;51.436;-2.518;2022-11-21T09:39:42;13.13;;;2.72;;
48859;SDS011;34679;51.436;-2.518;2022-11-21T09:42:24;22.45;;;3.58;;
48859;SDS011;34679;51.436;-2.518;2022-11-21T09:45:14;19.08;;;3.90;;
48859;SDS011;34679;51.436;-2.518;2022-11-21T09:47:46;17.15;;;2.50;;
48859;SDS011;34679;51.436;-2.518;2022-11-21T09:52:53;28.42;;;3.70;;
48859;SDS011;34679;51.436;-2.518;2022-11-21T09:57:59;17.52;;;2.95;;
48859;SDS011;34679;51.436;-2.518;2022-11-21T10:00:28;15.23;;;3.15;;
48859;SDS011;34679;51.436;-2.518;2022-11-21T10:02:54;14.63;;;2.17;;
48859;SDS011;34679;51.436;-2.518;2022-11-21T10:05:24;15.52;;;2.92;;
48859;SDS011;34679;51.436;-2.518;2022-11-21T10:07:59;20.20;;;2.15;;
48859;SDS011;34679;51.436;-2.518;2022-11-21T10:10:41;16.98;;;2.88;;
48859;SDS011;34679;51.436;-2.518;2022-11-21T10:16:20;19.38;;;2.38;;
48859;SDS011;34679;51.436;-2.518;2022-11-21T10:19:14;16.00;;;3.60;;
48859;SDS011;34679;51.436;-2.518;2022-11-21T10:30:11;8.25;;;1.48;;
48859;SDS011;34679;51.436;-2.518;2022-11-21T10:32:39;11.65;;;1.65;;
48859;SDS011;34679;51.436;-2.518;2022-11-21T10:37:59;0.88;;;0.45;;
48859;SDS011;34679;51.436;-2.518;2022-11-21T10:40:43;0.10;;;0.10;;
48859;SDS011;34679;51.436;-2.518;2022-11-21T10:46:24;7.05;;;3.33;;
48859;SDS011;34679;51.436;-2.518;2022-11-21T10:49:00;1.85;;;1.10;;
48859;SDS011;34679;51.436;-2.518;2022-11-21T10:54:16;0.15;;;0.15;;
48859;SDS011;34679;51.436;-2.518;2022-11-21T10:59:34;0.10;;;0.10;;
48859;SDS011;34679;51.436;-2.518;2022-11-21T11:04:37;0.10;;;0.10;;
48859;SDS011;34679;51.436;-2.518;2022-11-21T11:07:20;0.00;;;0.00;;
48859;SDS011;34679;51.436;-2.518;2022-11-21T11:10:13;0.57;;;0.57;;
48859;SDS011;34679;51.436;-2.518;2022-11-21T11:12:39;1.38;;;0.68;;
48859;SDS011;34679;51.436;-2.518;2022-11-21T11:15:24;0.05;;;0.05;;
48859;SDS011;34679;51.436;-2.518;2022-11-21T11:17:55;0.10;;;0.10;;
48859;SDS011;34679;51.436;-2.518;2022-11-21T11:20:29;0.28;;;0.28;;
48859;SDS011;34679;51.436;-2.518;2022-11-21T11:25:59;0.00;;;0.00;;
48859;SDS011;34679;51.436;-2.518;2022-11-21T11:28:26;0.20;;;0.20;;
48859;SDS011;34679;51.436;-2.518;2022-11-21T11:30:59;0.00;;;0.00;;
48859;SDS011;34679;51.436;-2.518;2022-11-21T11:33:35;0.65;;;0.65;;
48859;SDS011;34679;51.436;-2.518;2022-11-21T11:45:08;0.10;;;0.10;;
48859;SDS011;34679;51.436;-2.518;2022-11-21T11:48:00;0.85;;;0.57;;
48859;SDS011;34679;51.436;-2.518;2022-11-21T11:50:45;0.68;;;0.68;;
48859;SDS011;34679;51.436;-2.518;2022-11-21T11:53:21;0.10;;;0.10;;
48859;SDS011;34679;51.436;-2.518;2022-11-21T11:58:46;0.10;;;0.10;;
48859;SDS011;34679;51.436;-2.518;2022-11-21T12:01:31;0.88;;;0.52;;
48859;SDS011;34679;51.436;-2.518;2022-11-21T12:06:33;0.20;;;0.20;;
48859;SDS011;34679;51.436;-2.518;2022-11-21T12:11:54;0.00;;;0.00;;
48859;SDS011;34679;51.436;-2.518;2022-11-21T12:17:50;3.58;;;1.08;;
48859;SDS011;34679;51.436;-2.518;2022-11-21T12:23:25;0.10;;;0.10;;
48859;SDS011;34679;51.436;-2.518;2022-11-21T12:37:38;0.00;;;0.00;;
48859;SDS011;34679;51.436;-2.518;2022-11-21T12:40:21;0.20;;;0.20;;
48859;SDS011;34679;51.436;-2.518;2022-11-21T12:43:20;0.30;;;0.30;;
48859;SDS011;34679;51.436;-2.518;2022-11-21T12:46:27;0.20;;;0.20;;
48859;SDS011;34679;51.436;-2.518;2022-11-21T12:49:20;0.00;;;0.00;;
48859;SDS011;34679;51.436;-2.518;2022-11-21T12:52:29;0.60;;;0.50;;
48859;SDS011;34679;51.436;-2.518;2022-11-21T12:55:22;0.00;;;0.00;;
48859;SDS011;34679;51.436;-2.518;2022-11-21T13:06:11;0.05;;;0.05;;
48859;SDS011;34679;51.436;-2.518;2022-11-21T13:08:40;0.10;;;0.10;;
48859;SDS011;34679;51.436;-2.518;2022-11-21T13:19:53;0.20;;;0.20;;
48859;SDS011;34679;51.436;-2.518;2022-11-21T13:28:21;0.00;;;0.00;;
48859;SDS011;34679;51.436;-2.518;2022-11-21T13:36:32;0.08;;;0.08;;
48859;SDS011;34679;51.436;-2.518;2022-11-21T13:49:43;0.57;;;0.35;;
48859;SDS011;34679;51.436;-2.518;2022-11-21T14:07:53;0.03;;;0.03;;
48859;SDS011;34679;51.436;-2.518;2022-11-21T14:10:44;0.13;;;0.13;;
48859;SDS011;34679;51.436;-2.518;2022-11-21T14:18:44;0.00;;;0.00;;
48859;SDS011;34679;51.436;-2.518;2022-11-21T14:21:18;0.00;;;0.00;;
48859;SDS011;34679;51.436;-2.518;2022-11-21T14:23:46;0.10;;;0.10;;
48859;SDS011;34679;51.436;-2.518;2022-11-21T14:26:16;0.00;;;0.00;;
48859;SDS011;34679;51.436;-2.518;2022-11-21T14:28:45;0.00;;;0.00;;
48859;SDS011;34679;51.436;-2.518;2022-11-21T14:31:12;0.00;;;0.00;;
48859;SDS011;34679;51.436;-2.518;2022-11-21T14:38:53;0.10;;;0.10;;
48859;SDS011;34679;51.436;-2.518;2022-11-21T14:46:31;0.00;;;0.00;;
48859;SDS011;34679;51.436;-2.518;2022-11-21T14:49:08;0.00;;;0.00;;
48859;SDS011;34679;51.436;-2.518;2022-11-21T14:51:41;0.00;;;0.00;;
48859;SDS011;34679;51.436;-2.518;2022-11-21T14:54:21;0.00;;;0.00;;
48859;SDS011;34679;51.436;-2.518;2022-11-21T14:56:59;0.10;;;0.10;;
48859;SDS011;34679;51.436;-2.518;2022-11-21T14:59:39;0.00;;;0.00;;
48859;SDS011;34679;51.436;-2.518;2022-11-21T15:02:14;0.00;;;0.00;;
48859;SDS011;34679;51.436;-2.518;2022-11-21T15:04:42;0.10;;;0.10;;
48859;SDS011;34679;51.436;-2.518;2022-11-21T15:07:19;0.00;;;0.00;;
48859;SDS011;34679;51.436;-2.518;2022-11-21T15:09:46;0.03;;;0.03;;
48859;SDS011;34679;51.436;-2.518;2022-11-21T15:12:12;0.05;;;0.05;;
48859;SDS011;34679;51.436;-2.518;2022-11-21T15:14:45;0.57;;;0.57;;
48859;SDS011;34679;51.436;-2.518;2022-11-21T15:17:32;0.10;;;0.10;;
48859;SDS011;34679;51.436;-2.518;2022-11-21T15:22:37;0.03;;;0.03;;
48859;SDS011;34679;51.436;-2.518;2022-11-21T15:25:24;0.00;;;0.00;;
48859;SDS011;34679;51.436;-2.518;2022-11-21T15:28:05;0.00;;;0.00;;
48859;SDS011;34679;51.436;-2.518;2022-11-21T15:30:34;0.00;;;0.00;;
48859;SDS011;34679;51.436;-2.518;2022-11-21T15:33:17;0.00;;;0.00;;
48859;SDS011;34679;51.436;-2.518;2022-11-21T15:35:56;0.00;;;0.00;;
48859;SDS011;34679;51.436;-2.518;2022-11-21T15:41:24;0.00;;;0.00;;
48859;SDS011;34679;51.436;-2.518;2022-11-21T15:43:51;0.05;;;0.05;;
48859;SDS011;34679;51.436;-2.518;2022-11-21T15:46:20;0.00;;;0.00;;
48859;SDS011;34679;51.436;-2.518;2022-11-21T15:51:17;0.00;;;0.00;;
48859;SDS011;34679;51.436;-2.518;2022-11-21T15:53:45;0.10;;;0.10;;
48859;SDS011;34679;51.436;-2.518;2022-11-21T15:56:14;0.00;;;0.00;;
48859;SDS011;34679;51.436;-2.518;2022-11-21T15:58:41;0.00;;;0.00;;
48859;SDS011;34679;51.436;-2.518;2022-11-21T16:01:17;0.00;;;0.00;;
48859;SDS011;34679;51.436;-2.518;2022-11-21T16:03:44;8.52;;;2.65;;
48859;SDS011;34679;51.436;-2.518;2022-11-21T16:06:13;0.00;;;0.00;;
48859;SDS011;34679;51.436;-2.518;2022-11-21T16:08:39;0.00;;;0.00;;
48859;SDS011;34679;51.436;-2.518;2022-11-21T16:11:05;0.00;;;0.00;;
48859;SDS011;34679;51.436;-2.518;2022-11-21T16:13:31;0.03;;;0.03;;
48859;SDS011;34679;51.436;-2.518;2022-11-21T16:15:59;0.00;;;0.00;;
48859;SDS011;34679;51.436;-2.518;2022-11-21T16:18:25;0.05;;;0.05;;
48859;SDS011;34679;51.436;-2.518;2022-11-21T16:20:51;0.00;;;0.00;;
48859;SDS011;34679;51.436;-2.518;2022-11-21T16:23:16;0.10;;;0.10;;
48859;SDS011;34679;51.436;-2.518;2022-11-21T16:25:52;0.00;;;0.00;;
48859;SDS011;34679;51.436;-2.518;2022-11-21T16:28:18;0.00;;;0.00;;
48859;SDS011;34679;51.436;-2.518;2022-11-21T16:30:44;0.10;;;0.10;;
48859;SDS011;34679;51.436;-2.518;2022-11-21T16:33:09;0.00;;;0.00;;
48859;SDS011;34679;51.436;-2.518;2022-11-21T16:35:38;0.10;;;0.10;;
48859;SDS011;34679;51.436;-2.518;2022-11-21T16:38:07;0.30;;;0.30;;
48859;SDS011;34679;51.436;-2.518;2022-11-21T16:40:34;0.00;;;0.00;;
48859;SDS011;34679;51.436;-2.518;2022-11-21T16:43:07;0.00;;;0.00;;
48859;SDS011;34679;51.436;-2.518;2022-11-21T16:45:34;9.63;;;1.90;;
48859;SDS011;34679;51.436;-2.518;2022-11-21T16:48:00;0.10;;;0.10;;
48859;SDS011;34679;51.436;-2.518;2022-11-21T16:50:25;0.55;;;0.55;;
48859;SDS011;34679;51.436;-2.518;2022-11-21T16:52:51;0.00;;;0.00;;
48859;SDS011;34679;51.436;-2.518;2022-11-21T16:55:17;0.20;;;0.20;;
48859;SDS011;34679;51.436;-2.518;2022-11-21T16:57:42;0.30;;;0.30;;
48859;SDS011;34679;51.436;-2.518;2022-11-21T17:00:08;0.20;;;0.20;;
48859;SDS011;34679;51.436;-2.518;2022-11-21T17:02:37;0.10;;;0.10;;
48859;SDS011;34679;51.436;-2.518;2022-11-21T17:05:03;0.45;;;0.45;;
48859;SDS011;34679;51.436;-2.518;2022-11-21T17:07:30;0.00;;;0.00;;
48859;SDS011;34679;51.436;-2.518;2022-11-21T17:09:56;10.23;;;3.03;;
48859;SDS011;34679;51.436;-2.518;2022-11-21T17:12:23;0.30;;;0.30;;
48859;SDS011;34679;51.436;-2.518;2022-11-21T17:14:49;1.98;;;1.88;;
48859;SDS011;34679;51.436;-2.518;2022-11-21T17:17:15;0.03;;;0.03;;
48859;SDS011;34679;51.436;-2.518;2022-11-21T17:19:41;1.25;;;1.17;;
48859;SDS011;34679;51.436;-2.518;2022-11-21T17:22:07;0.93;;;0.90;;
48859;SDS011;34679;51.436;-2.518;2022-11-21T17:24:32;0.20;;;0.20;;